sensor_id;sensor_type;location;lat;lon;timestamp;temperature;humidity
10143;DHT22;5112;54.088;13.446;2022-09-28T00:09:35;10.80;99.90
10143;DHT22;5112;54.088;13.446;2022-09-28T00:19:39;10.90;99.90
10143;DHT22;5112;54.088;13.446;2022-09-28T00:29:40;10.90;99.90
10143;DHT22;5112;54.088;13.446;2022-09-28T00:39:44;10.90;99.90
10143;DHT22;5112;54.088;13.446;2022-09-28T00:49:49;10.90;99.90
10143;DHT22;5112;54.088;13.446;2022-09-28T00:59:55;10.90;99.90
10143;DHT22;5112;54.088;13.446;2022-09-28T01:09:57;10.90;99.90
10143;DHT22;5112;54.088;13.446;2022-09-28T01:20:31;10.90;99.90
10143;DHT22;5112;54.088;13.446;2022-09-28T01:30:41;10.70;99.90
10143;DHT22;5112;54.088;13.446;2022-09-28T01:40:45;10.80;99.90
10143;DHT22;5112;54.088;13.446;2022-09-28T01:50:53;10.80;99.90
10143;DHT22;5112;54.088;13.446;2022-09-28T02:01:04;10.80;99.90
10143;DHT22;5112;54.088;13.446;2022-09-28T02:11:12;10.80;99.90
10143;DHT22;5112;54.088;13.446;2022-09-28T02:21:16;10.80;99.90
10143;DHT22;5112;54.088;13.446;2022-09-28T02:31:20;10.70;99.90
10143;DHT22;5112;54.088;13.446;2022-09-28T02:41:29;10.70;99.90
10143;DHT22;5112;54.088;13.446;2022-09-28T02:51:39;10.70;99.90
10143;DHT22;5112;54.088;13.446;2022-09-28T03:01:51;10.70;99.90
10143;DHT22;5112;54.088;13.446;2022-09-28T03:12:00;10.60;99.90
10143;DHT22;5112;54.088;13.446;2022-09-28T03:22:04;10.60;99.90
10143;DHT22;5112;54.088;13.446;2022-09-28T03:32:08;10.60;99.90
10143;DHT22;5112;54.088;13.446;2022-09-28T03:42:10;10.50;99.90
10143;DHT22;5112;54.088;13.446;2022-09-28T03:52:13;10.50;99.90
10143;DHT22;5112;54.088;13.446;2022-09-28T04:02:15;10.50;99.90
10143;DHT22;5112;54.088;13.446;2022-09-28T04:12:18;10.50;99.90
10143;DHT22;5112;54.088;13.446;2022-09-28T04:22:20;10.50;99.90
10143;DHT22;5112;54.088;13.446;2022-09-28T04:32:24;10.40;99.90
10143;DHT22;5112;54.088;13.446;2022-09-28T04:42:26;10.10;99.90
10143;DHT22;5112;54.088;13.446;2022-09-28T04:52:29;10.00;99.90
10143;DHT22;5112;54.088;13.446;2022-09-28T05:02:31;9.90;99.90
10143;DHT22;5112;54.088;13.446;2022-09-28T05:12:34;9.90;99.90
10143;DHT22;5112;54.088;13.446;2022-09-28T05:22:35;9.80;99.90
10143;DHT22;5112;54.088;13.446;2022-09-28T05:32:40;9.80;99.90
10143;DHT22;5112;54.088;13.446;2022-09-28T05:42:43;9.80;99.90
10143;DHT22;5112;54.088;13.446;2022-09-28T05:52:46;9.90;99.90
10143;DHT22;5112;54.088;13.446;2022-09-28T06:02:57;10.10;99.90
10143;DHT22;5112;54.088;13.446;2022-09-28T06:13:01;10.20;99.90
10143;DHT22;5112;54.088;13.446;2022-09-28T06:23:03;10.40;99.90
10143;DHT22;5112;54.088;13.446;2022-09-28T06:33:08;10.60;99.90
10143;DHT22;5112;54.088;13.446;2022-09-28T06:43:11;10.70;99.90
10143;DHT22;5112;54.088;13.446;2022-09-28T06:53:15;10.80;99.90
10143;DHT22;5112;54.088;13.446;2022-09-28T07:03:20;10.80;99.90
10143;DHT22;5112;54.088;13.446;2022-09-28T07:13:24;10.80;99.90
10143;DHT22;5112;54.088;13.446;2022-09-28T07:23:27;10.80;99.90
10143;DHT22;5112;54.088;13.446;2022-09-28T07:33:31;10.90;99.90
10143;DHT22;5112;54.088;13.446;2022-09-28T07:43:33;11.00;99.90
10143;DHT22;5112;54.088;13.446;2022-09-28T07:53:36;11.40;99.90
10143;DHT22;5112;54.088;13.446;2022-09-28T08:03:38;11.70;99.90
10143;DHT22;5112;54.088;13.446;2022-09-28T08:13:41;11.70;99.90
10143;DHT22;5112;54.088;13.446;2022-09-28T08:23:45;11.50;99.90
10143;DHT22;5112;54.088;13.446;2022-09-28T08:33:48;11.60;99.90
10143;DHT22;5112;54.088;13.446;2022-09-28T08:44:10;11.70;99.90
10143;DHT22;5112;54.088;13.446;2022-09-28T08:54:23;11.50;99.90
10143;DHT22;5112;54.088;13.446;2022-09-28T09:04:26;11.60;99.90
10143;DHT22;5112;54.088;13.446;2022-09-28T09:15:00;11.60;99.90
10143;DHT22;5112;54.088;13.446;2022-09-28T09:25:17;11.70;99.90
10143;DHT22;5112;54.088;13.446;2022-09-28T09:35:28;11.60;99.90
10143;DHT22;5112;54.088;13.446;2022-09-28T09:45:46;11.70;99.90
10143;DHT22;5112;54.088;13.446;2022-09-28T09:55:58;11.70;99.90
10143;DHT22;5112;54.088;13.446;2022-09-28T10:06:04;12.00;99.90
10143;DHT22;5112;54.088;13.446;2022-09-28T10:16:08;12.20;99.90
10143;DHT22;5112;54.088;13.446;2022-09-28T10:26:14;12.50;99.90
10143;DHT22;5112;54.088;13.446;2022-09-28T10:36:17;12.50;99.90
10143;DHT22;5112;54.088;13.446;2022-09-28T10:46:20;12.60;99.90
10143;DHT22;5112;54.088;13.446;2022-09-28T10:56:27;12.90;99.90
10143;DHT22;5112;54.088;13.446;2022-09-28T11:06:30;12.70;99.90
10143;DHT22;5112;54.088;13.446;2022-09-28T11:16:35;12.90;99.90
10143;DHT22;5112;54.088;13.446;2022-09-28T11:26:39;12.90;99.90
10143;DHT22;5112;54.088;13.446;2022-09-28T11:37:05;13.00;99.90
10143;DHT22;5112;54.088;13.446;2022-09-28T11:47:46;13.20;99.90
10143;DHT22;5112;54.088;13.446;2022-09-28T11:57:55;13.00;99.90
10143;DHT22;5112;54.088;13.446;2022-09-28T12:08:04;13.10;99.90
10143;DHT22;5112;54.088;13.446;2022-09-28T12:18:12;12.60;99.90
10143;DHT22;5112;54.088;13.446;2022-09-28T12:28:23;12.80;99.90
10143;DHT22;5112;54.088;13.446;2022-09-28T12:38:41;12.90;99.90
10143;DHT22;5112;54.088;13.446;2022-09-28T12:59:31;12.70;99.90
10143;DHT22;5112;54.088;13.446;2022-09-28T13:09:43;12.80;99.90
10143;DHT22;5112;54.088;13.446;2022-09-28T13:19:52;13.00;99.90
10143;DHT22;5112;54.088;13.446;2022-09-28T13:29:58;13.30;99.90
10143;DHT22;5112;54.088;13.446;2022-09-28T13:40:02;13.50;99.90
10143;DHT22;5112;54.088;13.446;2022-09-28T13:50:17;14.90;99.90
10143;DHT22;5112;54.088;13.446;2022-09-28T14:00:26;15.40;99.90
10143;DHT22;5112;54.088;13.446;2022-09-28T14:10:53;15.20;99.90
10143;DHT22;5112;54.088;13.446;2022-09-28T14:21:22;14.80;99.90
10143;DHT22;5112;54.088;13.446;2022-09-28T14:31:29;14.40;99.90
10143;DHT22;5112;54.088;13.446;2022-09-28T14:41:34;14.30;99.90
10143;DHT22;5112;54.088;13.446;2022-09-28T14:51:56;14.50;99.90
10143;DHT22;5112;54.088;13.446;2022-09-28T15:02:06;13.90;99.90
10143;DHT22;5112;54.088;13.446;2022-09-28T15:12:15;13.80;99.90
10143;DHT22;5112;54.088;13.446;2022-09-28T15:22:19;13.30;99.90
10143;DHT22;5112;54.088;13.446;2022-09-28T15:32:24;13.00;99.90
10143;DHT22;5112;54.088;13.446;2022-09-28T15:42:34;12.80;99.90
10143;DHT22;5112;54.088;13.446;2022-09-28T15:52:38;12.80;99.90
10143;DHT22;5112;54.088;13.446;2022-09-28T16:02:58;12.70;99.90
10143;DHT22;5112;54.088;13.446;2022-09-28T16:13:14;12.50;99.90
10143;DHT22;5112;54.088;13.446;2022-09-28T16:23:22;12.40;99.90
10143;DHT22;5112;54.088;13.446;2022-09-28T16:33:27;12.00;99.90
10143;DHT22;5112;54.088;13.446;2022-09-28T16:43:32;11.60;99.90
10143;DHT22;5112;54.088;13.446;2022-09-28T16:53:36;11.30;99.90
10143;DHT22;5112;54.088;13.446;2022-09-28T17:03:56;11.10;99.90
10143;DHT22;5112;54.088;13.446;2022-09-28T17:13:58;10.70;99.90
10143;DHT22;5112;54.088;13.446;2022-09-28T17:24:04;10.60;99.90
10143;DHT22;5112;54.088;13.446;2022-09-28T17:34:07;10.60;99.90
10143;DHT22;5112;54.088;13.446;2022-09-28T17:44:10;10.50;99.90
10143;DHT22;5112;54.088;13.446;2022-09-28T17:54:14;10.30;99.90
10143;DHT22;5112;54.088;13.446;2022-09-28T18:04:20;10.30;99.90
10143;DHT22;5112;54.088;13.446;2022-09-28T18:14:22;10.30;99.90
10143;DHT22;5112;54.088;13.446;2022-09-28T18:24:26;10.20;99.90
10143;DHT22;5112;54.088;13.446;2022-09-28T18:34:27;10.20;99.90
10143;DHT22;5112;54.088;13.446;2022-09-28T18:44:31;10.10;99.90
10143;DHT22;5112;54.088;13.446;2022-09-28T18:54:33;10.10;99.90
10143;DHT22;5112;54.088;13.446;2022-09-28T19:04:36;10.00;99.90
10143;DHT22;5112;54.088;13.446;2022-09-28T19:14:38;9.90;99.90
10143;DHT22;5112;54.088;13.446;2022-09-28T19:24:41;9.80;99.90
10143;DHT22;5112;54.088;13.446;2022-09-28T19:34:43;9.60;99.90
10143;DHT22;5112;54.088;13.446;2022-09-28T19:44:46;9.50;99.90
10143;DHT22;5112;54.088;13.446;2022-09-28T19:54:48;9.40;99.90
10143;DHT22;5112;54.088;13.446;2022-09-28T20:04:55;9.30;99.90
10143;DHT22;5112;54.088;13.446;2022-09-28T20:14:56;9.20;99.90
10143;DHT22;5112;54.088;13.446;2022-09-28T20:24:59;9.20;99.90
10143;DHT22;5112;54.088;13.446;2022-09-28T20:35:02;9.20;99.90
10143;DHT22;5112;54.088;13.446;2022-09-28T20:45:05;9.30;99.90
10143;DHT22;5112;54.088;13.446;2022-09-28T20:55:07;9.40;99.90
10143;DHT22;5112;54.088;13.446;2022-09-28T21:05:10;9.40;99.90
10143;DHT22;5112;54.088;13.446;2022-09-28T21:15:12;9.50;99.90
10143;DHT22;5112;54.088;13.446;2022-09-28T21:25:15;9.50;99.90
10143;DHT22;5112;54.088;13.446;2022-09-28T21:35:17;9.50;99.90
10143;DHT22;5112;54.088;13.446;2022-09-28T21:45:20;9.50;99.90
10143;DHT22;5112;54.088;13.446;2022-09-28T21:55:22;9.30;99.90
10143;DHT22;5112;54.088;13.446;2022-09-28T22:05:25;9.20;99.90
10143;DHT22;5112;54.088;13.446;2022-09-28T22:15:27;9.10;99.90
10143;DHT22;5112;54.088;13.446;2022-09-28T22:25:30;9.00;99.90
10143;DHT22;5112;54.088;13.446;2022-09-28T22:35:32;8.80;99.90
10143;DHT22;5112;54.088;13.446;2022-09-28T22:45:35;8.60;99.90
10143;DHT22;5112;54.088;13.446;2022-09-28T22:55:36;8.70;99.90
10143;DHT22;5112;54.088;13.446;2022-09-28T23:05:39;8.60;99.90
10143;DHT22;5112;54.088;13.446;2022-09-28T23:15:41;8.40;99.90
10143;DHT22;5112;54.088;13.446;2022-09-28T23:25:44;8.50;99.90
10143;DHT22;5112;54.088;13.446;2022-09-28T23:35:46;8.30;99.90
10143;DHT22;5112;54.088;13.446;2022-09-28T23:45:49;8.30;99.90
10143;DHT22;5112;54.088;13.446;2022-09-28T23:55:51;8.20;99.90
